createdAt,value
2023-02-14T00:01:47.020Z,7.30
2023-02-14T00:04:16.228Z,7.30
2023-02-14T00:06:46.023Z,7.30
2023-02-14T00:09:17.072Z,7.30
2023-02-14T00:11:45.784Z,7.40
2023-02-14T00:14:32.142Z,7.30
2023-02-14T00:17:00.401Z,7.40
2023-02-14T00:19:29.082Z,7.30
2023-02-14T00:21:58.749Z,7.30
2023-02-14T00:24:28.538Z,7.30
2023-02-14T00:26:56.991Z,7.30
2023-02-14T00:29:27.206Z,7.30
2023-02-14T00:31:55.831Z,7.40
2023-02-14T00:34:26.048Z,7.30
2023-02-14T00:36:55.318Z,7.40
2023-02-14T00:39:24.934Z,7.40
2023-02-14T00:41:53.337Z,7.30
2023-02-14T00:44:21.757Z,7.30
2023-02-14T00:46:50.041Z,7.30
2023-02-14T00:49:18.456Z,7.30
2023-02-14T00:51:46.690Z,7.30
2023-02-14T00:54:14.970Z,7.30
2023-02-14T00:56:44.609Z,7.30
2023-02-14T00:59:13.138Z,7.30
2023-02-14T01:01:43.537Z,7.30
2023-02-14T01:04:11.868Z,7.30
2023-02-14T01:06:40.157Z,7.30
2023-02-14T01:09:08.504Z,7.30
2023-02-14T01:11:36.792Z,7.30
2023-02-14T01:14:07.418Z,7.30
2023-02-14T01:16:36.785Z,7.30
2023-02-14T01:19:05.120Z,7.30
2023-02-14T01:21:35.035Z,7.30
2023-02-14T01:24:06.485Z,7.30
2023-02-14T01:26:35.625Z,7.30
2023-02-14T01:29:04.848Z,7.30
2023-02-14T01:31:36.485Z,7.30
2023-02-14T01:34:05.698Z,7.30
2023-02-14T01:36:36.803Z,7.30
2023-02-14T01:39:08.382Z,7.30
2023-02-14T01:41:38.887Z,7.30
2023-02-14T01:44:09.463Z,7.30
2023-02-14T01:46:39.257Z,7.30
2023-02-14T01:49:10.636Z,7.30
2023-02-14T01:51:42.326Z,7.30
2023-02-14T01:54:11.575Z,7.30
2023-02-14T01:56:43.889Z,7.30
2023-02-14T01:59:19.567Z,7.30
2023-02-14T02:01:51.595Z,7.30
2023-02-14T02:04:27.452Z,7.30
2023-02-14T02:07:03.647Z,7.30
2023-02-14T02:09:35.115Z,7.30
2023-02-14T02:12:04.197Z,7.20
2023-02-14T02:14:33.233Z,7.20
2023-02-14T02:17:18.007Z,7.30
2023-02-14T02:20:24.965Z,7.20
2023-02-14T02:23:29.818Z,7.20
2023-02-14T02:26:22.171Z,7.30
2023-02-14T02:29:29.004Z,7.20
2023-02-14T02:32:23.528Z,7.20
2023-02-14T02:35:16.834Z,7.20
2023-02-14T02:37:59.999Z,7.20
2023-02-14T02:40:45.044Z,7.20
2023-02-14T02:43:25.801Z,7.20
2023-02-14T02:46:18.118Z,7.20
2023-02-14T02:48:50.245Z,7.20
2023-02-14T02:51:48.963Z,7.20
2023-02-14T02:54:24.742Z,7.20
2023-02-14T02:56:57.284Z,7.20
2023-02-14T02:59:28.117Z,7.20
2023-02-14T03:02:03.036Z,7.20
2023-02-14T03:04:53.149Z,7.20
2023-02-14T03:07:36.736Z,7.20
2023-02-14T03:10:13.572Z,7.20
2023-02-14T03:13:20.686Z,7.20
2023-02-14T03:15:59.917Z,7.20
2023-02-14T03:18:45.649Z,7.20
2023-02-14T03:21:26.021Z,7.20
2023-02-14T03:24:04.333Z,7.10
2023-02-14T03:26:39.061Z,7.20
2023-02-14T03:29:15.735Z,7.10
2023-02-14T03:31:55.976Z,7.20
2023-02-14T03:34:32.447Z,7.10
2023-02-14T03:37:07.005Z,7.10
2023-02-14T03:39:44.938Z,7.10
2023-02-14T03:42:19.199Z,7.10
2023-02-14T03:44:50.327Z,7.20
2023-02-14T03:47:22.372Z,7.10
2023-02-14T03:49:54.749Z,7.10
2023-02-14T03:52:24.710Z,7.10
2023-02-14T03:54:57.744Z,7.10
2023-02-14T03:57:29.648Z,7.10
2023-02-14T03:59:58.424Z,7.10
2023-02-14T04:02:30.163Z,7.10
2023-02-14T04:05:01.524Z,7.10
2023-02-14T04:07:29.864Z,7.10
2023-02-14T04:09:59.567Z,7.10
2023-02-14T04:12:37.491Z,7.10
2023-02-14T04:15:07.316Z,7.10
2023-02-14T04:17:53.377Z,7.10
2023-02-14T04:20:22.057Z,7.10
2023-02-14T04:22:51.539Z,7.10
2023-02-14T04:25:22.470Z,7.10
2023-02-14T04:27:50.729Z,7.00
2023-02-14T04:30:20.944Z,7.00
2023-02-14T04:32:49.406Z,7.00
2023-02-14T04:35:18.095Z,7.00
2023-02-14T04:37:46.761Z,7.00
2023-02-14T04:40:17.292Z,7.00
2023-02-14T04:42:47.536Z,7.00
2023-02-14T04:45:16.523Z,7.00
2023-02-14T04:47:44.962Z,7.00
2023-02-14T04:50:13.665Z,7.00
2023-02-14T04:52:42.131Z,6.90
2023-02-14T04:55:11.532Z,7.00
2023-02-14T04:57:39.889Z,6.90
2023-02-14T05:00:11.111Z,6.90
2023-02-14T05:02:39.387Z,7.00
2023-02-14T05:05:08.564Z,6.90
2023-02-14T05:07:37.066Z,7.00
2023-02-14T05:10:06.661Z,6.90
2023-02-14T05:12:34.926Z,7.00
2023-02-14T05:15:03.290Z,7.00
2023-02-14T05:17:32.894Z,7.00
2023-02-14T05:20:01.195Z,7.00
2023-02-14T05:22:29.490Z,7.00
2023-02-14T05:24:57.896Z,7.00
2023-02-14T05:27:26.186Z,7.00
2023-02-14T05:29:54.601Z,6.90
2023-02-14T05:32:22.974Z,6.90
2023-02-14T05:34:52.639Z,7.00
2023-02-14T05:37:21.235Z,6.90
2023-02-14T05:39:49.603Z,6.90
2023-02-14T05:42:18.006Z,7.00
2023-02-14T05:44:46.315Z,6.90
2023-02-14T05:47:14.884Z,7.00
2023-02-14T05:49:43.276Z,7.00
2023-02-14T05:52:12.987Z,6.90
2023-02-14T05:54:41.298Z,6.90
2023-02-14T05:57:09.597Z,6.90
2023-02-14T05:59:37.887Z,6.90
2023-02-14T06:02:06.281Z,6.90
2023-02-14T06:04:34.689Z,6.90
2023-02-14T06:07:03.033Z,6.90
2023-02-14T06:09:32.729Z,6.90
2023-02-14T06:12:01.435Z,6.90
2023-02-14T06:14:30.134Z,6.90
2023-02-14T06:17:01.493Z,6.90
2023-02-14T06:19:29.816Z,6.90
2023-02-14T06:21:58.198Z,6.90
2023-02-14T06:24:26.799Z,6.80
2023-02-14T06:26:56.497Z,6.90
2023-02-14T06:29:24.948Z,6.80
2023-02-14T06:31:53.708Z,6.90
2023-02-14T06:34:23.715Z,6.90
2023-02-14T06:36:52.213Z,6.80
2023-02-14T06:39:21.095Z,6.80
2023-02-14T06:41:49.320Z,6.80
2023-02-14T06:44:18.995Z,6.80
2023-02-14T06:46:47.518Z,6.80
2023-02-14T06:49:16.121Z,6.80
2023-02-14T06:51:44.509Z,6.80
2023-02-14T06:54:12.876Z,6.80
2023-02-14T06:56:41.209Z,6.80
2023-02-14T06:59:09.714Z,6.80
2023-02-14T07:01:39.394Z,6.80
2023-02-14T07:04:07.998Z,6.80
2023-02-14T07:06:37.128Z,6.80
2023-02-14T07:09:07.206Z,6.80
2023-02-14T07:11:35.476Z,6.80
2023-02-14T07:14:03.843Z,6.80
2023-02-14T07:16:32.101Z,6.80
2023-02-14T07:19:01.773Z,6.80
2023-02-14T07:21:30.046Z,6.80
2023-02-14T07:23:58.313Z,6.80
2023-02-14T07:26:26.912Z,6.80
2023-02-14T07:28:55.304Z,6.80
2023-02-14T07:31:23.856Z,6.80
2023-02-14T07:33:52.854Z,6.80
2023-02-14T07:36:22.491Z,6.80
2023-02-14T07:38:50.765Z,6.80
2023-02-14T07:41:19.137Z,6.80
2023-02-14T07:43:47.340Z,6.80
2023-02-14T07:46:17.580Z,6.80
2023-02-14T07:48:46.095Z,6.70
2023-02-14T07:51:14.308Z,6.70
2023-02-14T07:53:43.988Z,6.70
2023-02-14T07:56:12.288Z,6.70
2023-02-14T07:58:40.553Z,6.70
2023-02-14T08:01:08.916Z,6.70
2023-02-14T08:03:37.388Z,6.70
2023-02-14T08:06:05.924Z,6.70
2023-02-14T08:08:34.360Z,6.70
2023-02-14T08:11:03.998Z,6.70
2023-02-14T08:13:31.259Z,6.70
2023-02-14T08:16:09.624Z,6.70
2023-02-14T08:18:39.848Z,6.70
2023-02-14T08:21:10.196Z,6.70
2023-02-14T08:23:38.876Z,6.70
2023-02-14T08:26:09.341Z,6.60
2023-02-14T08:28:37.726Z,6.60
2023-02-14T08:31:07.380Z,6.70
2023-02-14T08:33:36.585Z,6.60
2023-02-14T08:36:06.492Z,6.70
2023-02-14T08:38:35.462Z,6.70
2023-02-14T08:41:07.726Z,6.70
2023-02-14T08:43:39.252Z,6.70
2023-02-14T08:46:08.190Z,6.70
2023-02-14T08:48:39.417Z,6.70
2023-02-14T08:51:09.141Z,6.60
2023-02-14T08:53:38.550Z,6.70
2023-02-14T08:56:09.606Z,6.70
2023-02-14T08:58:40.928Z,6.70
2023-02-14T09:01:10.826Z,6.70
2023-02-14T09:03:40.390Z,6.70
2023-02-14T09:06:12.758Z,6.70
2023-02-14T09:08:41.771Z,6.70
2023-02-14T09:11:11.647Z,6.70
2023-02-14T09:13:41.956Z,6.70
2023-02-14T09:16:32.920Z,6.70
2023-02-14T09:22:18.826Z,6.70
2023-02-14T09:25:10.432Z,6.70
2023-02-14T09:31:06.874Z,6.70
2023-02-14T09:33:45.134Z,6.80
2023-02-14T09:36:41.249Z,6.80
2023-02-14T09:39:20.985Z,6.80
2023-02-14T09:42:55.795Z,6.80
2023-02-14T09:45:38.686Z,6.80
2023-02-14T09:48:31.790Z,6.80
2023-02-14T09:51:37.995Z,6.80
2023-02-14T09:54:29.690Z,6.80
2023-02-14T09:57:33.753Z,6.80
2023-02-14T10:00:39.183Z,6.80
2023-02-14T10:03:49.526Z,6.80
2023-02-14T10:06:41.820Z,6.80
2023-02-14T10:09:51.501Z,6.80
2023-02-14T10:12:46.812Z,6.80
2023-02-14T10:15:29.248Z,6.80
2023-02-14T10:18:29.292Z,6.80
2023-02-14T10:21:43.000Z,6.80
2023-02-14T10:24:35.128Z,6.80
2023-02-14T10:27:45.949Z,6.80
2023-02-14T10:30:18.841Z,6.80
2023-02-14T10:32:57.720Z,6.80
2023-02-14T10:35:59.122Z,6.80
2023-02-14T10:38:55.111Z,6.80
2023-02-14T10:42:05.861Z,6.80
2023-02-14T10:45:00.797Z,6.80
2023-02-14T10:47:55.960Z,6.80
2023-02-14T10:50:49.114Z,6.80
2023-02-14T10:53:33.805Z,6.80
2023-02-14T10:56:25.752Z,6.80
2023-02-14T10:59:06.404Z,6.80
2023-02-14T11:01:38.594Z,6.80
2023-02-14T11:04:29.800Z,6.80
2023-02-14T11:07:25.287Z,6.80
2023-02-14T11:10:44.174Z,6.80
2023-02-14T11:14:00.755Z,6.80
2023-02-14T11:17:12.163Z,6.80
2023-02-14T11:20:02.098Z,6.80
2023-02-14T11:22:38.811Z,6.80
2023-02-14T11:25:28.880Z,6.80
2023-02-14T11:28:18.371Z,6.80
2023-02-14T11:30:57.923Z,6.80
2023-02-14T11:33:53.295Z,6.80
2023-02-14T11:36:34.136Z,6.80
2023-02-14T11:39:30.544Z,6.80
2023-02-14T11:42:08.477Z,6.80
2023-02-14T11:45:00.743Z,6.80
2023-02-14T11:48:31.450Z,6.80
2023-02-14T11:51:25.247Z,6.80
2023-02-14T11:54:24.752Z,6.80
2023-02-14T11:57:06.727Z,6.80
2023-02-14T12:02:54.385Z,6.80
2023-02-14T12:05:38.142Z,6.80
2023-02-14T12:08:12.690Z,6.80
2023-02-14T12:11:09.317Z,6.80
2023-02-14T12:13:51.965Z,6.80
2023-02-14T12:16:47.090Z,6.80
2023-02-14T12:19:36.459Z,6.80
2023-02-14T12:22:39.778Z,6.80
2023-02-14T12:25:31.794Z,6.80
2023-02-14T12:28:18.528Z,6.80
2023-02-14T12:31:09.647Z,6.80
2023-02-14T12:34:03.759Z,6.80
2023-02-14T12:37:21.897Z,6.80
2023-02-14T12:44:10.801Z,6.80
2023-02-14T12:47:06.861Z,6.80
2023-02-14T12:50:33.796Z,6.80
2023-02-14T12:53:41.202Z,6.80
2023-02-14T12:56:30.616Z,6.80
2023-02-14T12:59:31.358Z,6.80
2023-02-14T13:02:40.122Z,6.80
2023-02-14T13:05:47.252Z,6.80
2023-02-14T13:08:38.567Z,6.80
2023-02-14T13:11:27.655Z,6.80
2023-02-14T13:14:12.805Z,6.80
2023-02-14T13:17:09.085Z,6.80
2023-02-14T13:19:57.854Z,6.80
2023-02-14T13:22:44.548Z,6.80
2023-02-14T13:25:54.527Z,6.80
2023-02-14T13:28:36.689Z,6.80
2023-02-14T13:31:43.861Z,6.80
2023-02-14T13:34:30.740Z,6.80
2023-02-14T13:37:15.554Z,6.90
2023-02-14T13:40:09.244Z,6.80
2023-02-14T13:43:13.505Z,6.80
2023-02-14T13:46:16.854Z,6.90
2023-02-14T13:49:08.247Z,6.80
2023-02-14T13:51:55.505Z,6.80
2023-02-14T13:54:40.040Z,6.80
2023-02-14T13:57:34.376Z,6.90
2023-02-14T14:01:01.925Z,6.80
2023-02-14T14:03:56.474Z,6.90
2023-02-14T14:06:25.404Z,6.90
2023-02-14T14:08:56.955Z,6.90
2023-02-14T14:11:59.791Z,6.90
2023-02-14T14:14:37.879Z,6.90
2023-02-14T14:17:27.646Z,6.90
2023-02-14T14:19:57.975Z,6.90
2023-02-14T14:22:27.574Z,6.90
2023-02-14T14:25:02.144Z,6.90
2023-02-14T14:27:35.237Z,6.90
2023-02-14T14:30:07.481Z,6.90
2023-02-14T14:32:38.989Z,6.90
2023-02-14T14:35:18.188Z,6.90
2023-02-14T14:37:48.826Z,6.90
2023-02-14T14:40:25.595Z,7.00
2023-02-14T14:42:55.414Z,6.90
2023-02-14T14:45:27.662Z,7.00
2023-02-14T14:47:59.927Z,6.90
2023-02-14T14:50:30.503Z,6.90
2023-02-14T14:53:02.904Z,7.00
2023-02-14T14:55:32.816Z,6.90
2023-02-14T14:58:04.424Z,6.90
2023-02-14T15:00:35.837Z,7.00
2023-02-14T15:03:09.216Z,7.00
2023-02-14T15:05:39.642Z,6.90
2023-02-14T15:08:21.335Z,7.00
2023-02-14T15:10:54.397Z,7.00
2023-02-14T15:13:49.175Z,7.00
2023-02-14T15:16:20.312Z,7.00
2023-02-14T15:18:52.295Z,7.00
2023-02-14T15:21:21.614Z,7.00
2023-02-14T15:23:50.463Z,7.00
2023-02-14T15:26:22.413Z,7.00
2023-02-14T15:28:57.396Z,7.00
2023-02-14T15:31:30.882Z,7.00
2023-02-14T15:34:03.109Z,7.00
2023-02-14T15:36:33.598Z,7.00
2023-02-14T15:39:06.395Z,7.00
2023-02-14T15:41:34.897Z,7.00
2023-02-14T15:44:04.228Z,7.00
2023-02-14T15:46:37.145Z,7.00
2023-02-14T15:49:11.997Z,7.00
2023-02-14T15:51:42.094Z,7.00
2023-02-14T15:54:21.813Z,7.00
2023-02-14T15:56:53.695Z,7.00
2023-02-14T15:59:26.378Z,7.00
2023-02-14T16:01:57.890Z,7.00
2023-02-14T16:04:30.081Z,7.10
2023-02-14T16:07:22.096Z,7.00
2023-02-14T16:09:52.232Z,7.00
2023-02-14T16:12:32.877Z,7.10
2023-02-14T16:15:17.914Z,7.00
2023-02-14T16:17:48.026Z,7.10
2023-02-14T16:20:43.239Z,7.00
2023-02-14T16:23:27.698Z,7.00
2023-02-14T16:25:58.407Z,7.00
2023-02-14T16:28:33.662Z,7.10
2023-02-14T16:31:05.954Z,7.10
2023-02-14T16:33:36.960Z,7.10
2023-02-14T16:36:09.579Z,7.10
2023-02-14T16:38:44.214Z,7.10
2023-02-14T16:41:18.951Z,7.10
2023-02-14T16:43:47.940Z,7.10
2023-02-14T16:46:18.667Z,7.10
2023-02-14T16:48:52.029Z,7.10
2023-02-14T16:51:24.264Z,7.10
2023-02-14T16:53:53.902Z,7.10
2023-02-14T16:56:27.521Z,7.10
2023-02-14T16:58:58.756Z,7.10
2023-02-14T17:01:27.308Z,7.10
2023-02-14T17:03:55.884Z,7.10
2023-02-14T17:06:28.817Z,7.10
2023-02-14T17:08:58.591Z,7.10
2023-02-14T17:11:29.473Z,7.10
2023-02-14T17:13:58.200Z,7.10
2023-02-14T17:16:26.495Z,7.20
2023-02-14T17:18:55.493Z,7.10
2023-02-14T17:21:26.207Z,7.10
2023-02-14T17:23:54.459Z,7.10
2023-02-14T17:26:23.002Z,7.10
2023-02-14T17:28:51.514Z,7.20
2023-02-14T17:31:20.518Z,7.20
2023-02-14T17:33:48.984Z,7.20
2023-02-14T17:36:17.426Z,7.20
2023-02-14T17:38:47.095Z,7.20
2023-02-14T17:41:16.911Z,7.20
2023-02-14T17:43:45.691Z,7.20
2023-02-14T17:46:15.992Z,7.20
2023-02-14T17:48:45.640Z,7.20
2023-02-14T17:51:15.758Z,7.20
2023-02-14T17:53:44.627Z,7.20
2023-02-14T17:56:17.862Z,7.20
2023-02-14T17:58:47.766Z,7.20
2023-02-14T18:01:17.871Z,7.20
2023-02-14T18:03:46.656Z,7.20
2023-02-14T18:06:15.359Z,7.20
2023-02-14T18:08:46.230Z,7.20
2023-02-14T18:11:15.906Z,7.20
2023-02-14T18:13:44.440Z,7.20
2023-02-14T18:16:14.845Z,7.20
2023-02-14T18:18:43.720Z,7.20
2023-02-14T18:21:14.978Z,7.20
2023-02-14T18:23:43.404Z,7.20
2023-02-14T18:26:13.558Z,7.20
2023-02-14T18:28:43.224Z,7.20
2023-02-14T18:31:13.061Z,7.20
2023-02-14T18:33:42.094Z,7.20
2023-02-14T18:36:12.998Z,7.20
2023-02-14T18:38:42.930Z,7.20
2023-02-14T18:41:13.764Z,7.20
2023-02-14T18:43:44.610Z,7.20
2023-02-14T18:46:17.980Z,7.20
2023-02-14T18:48:46.505Z,7.20
2023-02-14T18:51:17.502Z,7.20
2023-02-14T18:53:47.024Z,7.20
2023-02-14T18:56:17.084Z,7.20
2023-02-14T18:58:50.603Z,7.20
2023-02-14T19:01:22.235Z,7.20
2023-02-14T19:03:52.935Z,7.30
2023-02-14T19:06:22.156Z,7.30
2023-02-14T19:08:51.136Z,7.30
2023-02-14T19:11:21.303Z,7.30
2023-02-14T19:13:53.530Z,7.30
2023-02-14T19:16:25.048Z,7.30
2023-02-14T19:18:54.290Z,7.30
2023-02-14T19:21:25.103Z,7.30
2023-02-14T19:23:54.877Z,7.30
2023-02-14T19:26:28.831Z,7.30
2023-02-14T19:29:01.543Z,7.30
2023-02-14T19:31:30.553Z,7.30
2023-02-14T19:33:58.988Z,7.30
2023-02-14T19:36:27.340Z,7.30
2023-02-14T19:38:58.200Z,7.30
2023-02-14T19:41:28.154Z,7.30
2023-02-14T19:44:00.633Z,7.30
2023-02-14T19:46:29.777Z,7.30
2023-02-14T19:48:59.017Z,7.30
2023-02-14T19:51:29.329Z,7.30
2023-02-14T19:53:59.374Z,7.30
2023-02-14T19:56:31.258Z,7.30
2023-02-14T19:59:07.567Z,7.30
2023-02-14T20:01:38.241Z,7.30
2023-02-14T20:04:10.112Z,7.30
2023-02-14T20:06:39.340Z,7.30
2023-02-14T20:09:08.528Z,7.30
2023-02-14T20:11:41.346Z,7.40
2023-02-14T20:14:11.073Z,7.30
2023-02-14T20:16:39.407Z,7.30
2023-02-14T20:19:12.091Z,7.30
2023-02-14T20:21:42.045Z,7.30
2023-02-14T20:24:11.045Z,7.40
2023-02-14T20:26:42.432Z,7.40
2023-02-14T20:29:12.489Z,7.30
2023-02-14T20:31:46.731Z,7.30
2023-02-14T20:34:15.324Z,7.30
2023-02-14T20:36:44.852Z,7.30
2023-02-14T20:39:14.129Z,7.30
2023-02-14T20:41:43.689Z,7.40
2023-02-14T20:44:15.559Z,7.40
2023-02-14T20:46:43.891Z,7.30
2023-02-14T20:49:12.478Z,7.30
2023-02-14T20:51:41.145Z,7.30
2023-02-14T20:54:09.431Z,7.30
2023-02-14T20:56:40.093Z,7.30
2023-02-14T20:59:08.842Z,7.30
2023-02-14T21:01:38.867Z,7.30
2023-02-14T21:04:07.496Z,7.30
2023-02-14T21:06:39.592Z,7.30
2023-02-14T21:09:08.668Z,7.30
2023-02-14T21:11:37.031Z,7.30
2023-02-14T21:14:05.392Z,7.30
2023-02-14T21:16:38.274Z,7.30
2023-02-14T21:19:06.791Z,7.30
2023-02-14T21:21:37.084Z,7.40
2023-02-14T21:24:07.720Z,7.30
2023-02-14T21:26:36.618Z,7.30
2023-02-14T21:29:05.481Z,7.40
2023-02-14T21:31:34.453Z,7.40
2023-02-14T21:34:04.884Z,7.40
2023-02-14T21:36:35.544Z,7.30
2023-02-14T21:39:04.786Z,7.30
2023-02-14T21:41:33.854Z,7.40
2023-02-14T21:44:03.699Z,7.30
2023-02-14T21:46:35.964Z,7.30
2023-02-14T21:49:24.196Z,7.30
2023-02-14T21:51:52.629Z,7.30
2023-02-14T21:54:21.093Z,7.30
2023-02-14T21:56:50.344Z,7.30
2023-02-14T21:59:18.766Z,7.30
2023-02-14T22:01:47.088Z,7.30
2023-02-14T22:04:16.846Z,7.30
2023-02-14T22:06:45.343Z,7.30
2023-02-14T22:09:17.443Z,7.30
2023-02-14T22:11:47.554Z,7.30
2023-02-14T22:14:16.206Z,7.30
2023-02-14T22:16:44.704Z,7.30
2023-02-14T22:19:17.087Z,7.30
2023-02-14T22:21:45.527Z,7.30
2023-02-14T22:24:13.882Z,7.40
2023-02-14T22:26:42.503Z,7.30
2023-02-14T22:29:12.883Z,7.30
2023-02-14T22:31:43.358Z,7.40
2023-02-14T22:34:13.584Z,7.30
2023-02-14T22:36:46.904Z,7.40
2023-02-14T22:39:16.847Z,7.30
2023-02-14T22:41:45.349Z,7.30
2023-02-14T22:44:14.369Z,7.30
2023-02-14T22:46:43.157Z,7.40
2023-02-14T22:49:11.480Z,7.30
2023-02-14T22:51:41.471Z,7.30
2023-02-14T22:54:13.495Z,7.40
2023-02-14T22:56:43.523Z,7.30
2023-02-14T22:59:17.162Z,7.30
2023-02-14T23:01:48.529Z,7.30
2023-02-14T23:04:18.243Z,7.30
2023-02-14T23:06:46.862Z,7.30
2023-02-14T23:09:17.327Z,7.30
2023-02-14T23:11:47.656Z,7.30
2023-02-14T23:14:34.904Z,7.30
2023-02-14T23:17:20.441Z,7.30
2023-02-14T23:20:06.871Z,7.30
2023-02-14T23:22:39.150Z,7.30
2023-02-14T23:25:11.310Z,7.30
2023-02-14T23:27:41.574Z,7.30
2023-02-14T23:30:12.211Z,7.30
2023-02-14T23:32:40.657Z,7.30
2023-02-14T23:35:09.644Z,7.30
2023-02-14T23:37:38.408Z,7.30
2023-02-14T23:40:09.866Z,7.30
2023-02-14T23:42:38.557Z,7.30
2023-02-14T23:45:25.025Z,7.30
2023-02-14T23:47:53.395Z,7.30
2023-02-14T23:50:21.716Z,7.30
2023-02-14T23:52:50.384Z,7.30
2023-02-14T23:55:23.222Z,7.30
2023-02-14T23:57:51.743Z,7.30
